createdAt,value
2019-01-26T00:01:42.151Z,98337.77
2019-01-26T00:04:11.758Z,98335.72
2019-01-26T00:06:41.515Z,98338.05
2019-01-26T00:09:11.855Z,98332.65
2019-01-26T00:11:41.406Z,98333.38
2019-01-26T00:14:11.010Z,98327.70
2019-01-26T00:16:40.618Z,98320.77
2019-01-26T00:19:10.199Z,98319.73
2019-01-26T00:21:41.343Z,98315.30
2019-01-26T00:24:10.976Z,98320.98
2019-01-26T00:26:40.555Z,98319.72
2019-01-26T00:29:10.117Z,98325.87
2019-01-26T00:31:39.777Z,98329.16
2019-01-26T00:34:09.378Z,98334.09
2019-01-26T00:36:38.970Z,98333.34
2019-01-26T00:39:09.618Z,98336.12
2019-01-26T00:41:39.268Z,98351.44
2019-01-26T00:44:15.015Z,98357.40
2019-01-26T00:47:04.083Z,98348.55
2019-01-26T00:49:33.652Z,98356.27
2019-01-26T00:52:03.254Z,98350.53
2019-01-26T00:54:32.846Z,98347.21
2019-01-26T00:57:02.576Z,98349.00
2019-01-26T00:59:33.631Z,98343.19
2019-01-26T01:02:04.780Z,98338.66
2019-01-26T01:04:34.388Z,98334.22
2019-01-26T01:07:04.210Z,98330.38
2019-01-26T01:09:33.808Z,98316.28
2019-01-26T01:12:03.575Z,98313.88
2019-01-26T01:14:33.130Z,98312.45
2019-01-26T01:17:05.782Z,98323.36
2019-01-26T01:19:37.324Z,98329.31
2019-01-26T01:22:07.041Z,98330.92
2019-01-26T01:24:36.648Z,98334.26
2019-01-26T01:27:07.817Z,98342.08
2019-01-26T01:29:37.376Z,98343.55
2019-01-26T01:32:06.939Z,98339.63
2019-01-26T01:34:36.551Z,98345.61
2019-01-26T01:37:06.431Z,98338.80
2019-01-26T01:39:36.036Z,98349.97
2019-01-26T01:42:05.890Z,98348.89
2019-01-26T01:44:54.725Z,98341.95
2019-01-26T01:47:24.314Z,98341.03
2019-01-26T01:49:53.880Z,98335.77
2019-01-26T01:52:23.529Z,98334.06
2019-01-26T01:54:53.180Z,98340.31
2019-01-26T01:57:22.762Z,98337.37
2019-01-26T01:59:52.350Z,98337.70
2019-01-26T02:02:21.921Z,98333.44
2019-01-26T02:04:51.515Z,98327.58
2019-01-26T02:07:21.236Z,98329.45
2019-01-26T02:09:50.862Z,98319.66
2019-01-26T02:12:20.430Z,98314.61
2019-01-26T02:14:49.998Z,98312.03
2019-01-26T02:17:19.686Z,98302.56
2019-01-26T02:19:49.239Z,98297.75
2019-01-26T02:22:38.145Z,98286.56
2019-01-26T02:25:08.330Z,98281.27
2019-01-26T02:27:37.967Z,98291.80
2019-01-26T02:30:12.014Z,98293.59
2019-01-26T02:32:41.648Z,98301.49
2019-01-26T02:35:11.536Z,98308.84
2019-01-26T02:37:41.131Z,98306.33
2019-01-26T02:40:14.605Z,98313.80
2019-01-26T02:42:44.273Z,98304.11
2019-01-26T02:45:16.339Z,98303.70
2019-01-26T02:47:46.201Z,98297.27
2019-01-26T02:50:18.215Z,98291.36
2019-01-26T02:52:48.004Z,98294.86
2019-01-26T02:55:17.856Z,98289.65
2019-01-26T02:57:47.498Z,98280.17
2019-01-26T03:00:21.252Z,98285.44
2019-01-26T03:02:51.067Z,98274.19
2019-01-26T03:05:21.004Z,98285.63
2019-01-26T03:07:59.511Z,98277.29
2019-01-26T03:10:29.198Z,98268.42
2019-01-26T03:13:18.074Z,98266.25
2019-01-26T03:15:47.710Z,98260.58
2019-01-26T03:18:17.357Z,98263.84
2019-01-26T03:20:46.965Z,98261.67
2019-01-26T03:23:16.696Z,98243.49
2019-01-26T03:25:46.258Z,98252.01
2019-01-26T03:28:16.238Z,98246.46
2019-01-26T03:31:05.165Z,98242.48
2019-01-26T03:33:34.752Z,98230.20
2019-01-26T03:36:05.860Z,98229.92
2019-01-26T03:38:35.450Z,98235.42
2019-01-26T03:41:05.225Z,98224.36
2019-01-26T03:43:35.044Z,98216.53
2019-01-26T03:46:04.885Z,98230.41
2019-01-26T03:48:34.564Z,98216.78
2019-01-26T03:51:04.375Z,98221.96
2019-01-26T03:53:34.071Z,98229.26
2019-01-26T03:56:04.420Z,98230.91
2019-01-26T03:58:34.167Z,98222.06
2019-01-26T04:01:04.056Z,98234.23
2019-01-26T04:03:33.743Z,98234.02
2019-01-26T04:06:03.372Z,98224.13
2019-01-26T04:08:33.066Z,98214.72
2019-01-26T04:11:02.674Z,98211.71
2019-01-26T04:13:32.268Z,98211.75
2019-01-26T04:16:01.828Z,98214.09
2019-01-26T04:18:31.406Z,98217.57
2019-01-26T04:21:20.236Z,98143.31
2019-01-26T04:23:49.839Z,98213.72
2019-01-26T04:26:19.421Z,98205.05
2019-01-26T04:28:48.981Z,98195.98
2019-01-26T04:31:18.615Z,98201.51
2019-01-26T04:33:49.655Z,98199.33
2019-01-26T04:36:19.259Z,98195.05
2019-01-26T04:38:48.867Z,98202.97
2019-01-26T04:41:18.432Z,98218.89
2019-01-26T04:43:48.070Z,98217.63
2019-01-26T04:46:17.691Z,98219.49
2019-01-26T04:48:47.289Z,98221.56
2019-01-26T04:51:16.863Z,98219.06
2019-01-26T04:53:46.505Z,98203.34
2019-01-26T04:56:16.110Z,98195.16
2019-01-26T04:58:45.688Z,98201.04
2019-01-26T05:01:15.327Z,98201.60
2019-01-26T05:03:44.931Z,98202.27
2019-01-26T05:06:14.504Z,98206.85
2019-01-26T05:08:44.452Z,98209.42
2019-01-26T05:11:14.029Z,98205.94
2019-01-26T05:13:43.605Z,98198.95
2019-01-26T05:16:13.396Z,98207.68
2019-01-26T05:18:43.058Z,98204.34
2019-01-26T05:21:12.668Z,98202.58
2019-01-26T05:23:42.618Z,98200.13
2019-01-26T05:26:12.293Z,98206.59
2019-01-26T05:28:41.850Z,98200.42
2019-01-26T05:31:11.539Z,98210.57
2019-01-26T05:33:41.084Z,98205.13
2019-01-26T05:36:10.743Z,98198.11
2019-01-26T05:38:40.467Z,98197.13
2019-01-26T05:41:11.606Z,98197.47
2019-01-26T05:43:41.181Z,98196.91
2019-01-26T05:46:10.778Z,98197.61
2019-01-26T05:48:40.344Z,98190.27
2019-01-26T05:51:10.975Z,98205.48
2019-01-26T05:53:40.941Z,98202.35
2019-01-26T05:56:12.108Z,98200.75
2019-01-26T05:58:41.691Z,98202.27
2019-01-26T06:01:11.325Z,98207.99
2019-01-26T06:03:44.748Z,98205.03
2019-01-26T06:06:14.349Z,98208.44
2019-01-26T06:08:43.937Z,98198.58
2019-01-26T06:11:13.507Z,98203.97
2019-01-26T06:13:44.559Z,98214.54
2019-01-26T06:16:14.427Z,98221.03
2019-01-26T06:18:44.105Z,98209.95
2019-01-26T06:21:13.652Z,98198.27
2019-01-26T06:23:43.317Z,98194.67
2019-01-26T06:26:12.928Z,98210.31
2019-01-26T06:28:42.535Z,98202.58
2019-01-26T06:31:12.157Z,98206.30
2019-01-26T06:33:41.747Z,98209.20
2019-01-26T06:36:11.336Z,98205.31
2019-01-26T06:38:41.292Z,98206.76
2019-01-26T06:41:10.929Z,98218.94
2019-01-26T06:43:40.490Z,98219.91
2019-01-26T06:46:10.245Z,98221.14
2019-01-26T06:48:41.467Z,98216.06
2019-01-26T06:51:11.395Z,98216.75
2019-01-26T06:53:41.040Z,98216.61
2019-01-26T06:56:12.125Z,98213.20
2019-01-26T06:59:01.042Z,98215.34
2019-01-26T07:01:30.593Z,98215.64
2019-01-26T07:04:00.197Z,98219.18
2019-01-26T07:06:31.303Z,98211.03
2019-01-26T07:09:00.897Z,98222.70
2019-01-26T07:11:30.465Z,98223.02
2019-01-26T07:14:00.127Z,98215.80
2019-01-26T07:16:29.710Z,98226.06
2019-01-26T07:18:59.314Z,98226.27
2019-01-26T07:21:29.502Z,98231.08
2019-01-26T07:23:59.100Z,98239.48
2019-01-26T07:26:29.620Z,98232.73
2019-01-26T07:28:59.221Z,98235.27
2019-01-26T07:31:28.805Z,98244.58
2019-01-26T07:33:58.399Z,98230.45
2019-01-26T07:36:28.021Z,98241.05
2019-01-26T07:38:57.604Z,98227.86
2019-01-26T07:41:28.673Z,98235.44
2019-01-26T07:43:58.300Z,98228.42
2019-01-26T07:46:33.907Z,98230.85
2019-01-26T07:49:03.559Z,98232.41
2019-01-26T07:51:33.532Z,98224.09
2019-01-26T07:54:03.138Z,98220.27
2019-01-26T07:56:32.944Z,98218.88
2019-01-26T07:59:02.688Z,98218.44
2019-01-26T08:01:32.314Z,98216.09
2019-01-26T08:04:01.893Z,98207.50
2019-01-26T08:06:31.593Z,98216.37
2019-01-26T08:09:01.193Z,98215.89
2019-01-26T08:11:30.912Z,98216.81
2019-01-26T08:14:00.504Z,98219.52
2019-01-26T08:16:30.100Z,98208.14
2019-01-26T08:18:59.681Z,98208.04
2019-01-26T08:21:29.441Z,98200.64
2019-01-26T08:23:59.019Z,98192.00
2019-01-26T08:26:30.076Z,98192.41
2019-01-26T08:29:01.677Z,98185.40
2019-01-26T08:31:37.240Z,98193.41
2019-01-26T08:34:07.001Z,98192.12
2019-01-26T08:36:36.756Z,98177.33
2019-01-26T08:39:08.680Z,98166.11
2019-01-26T08:41:38.359Z,98148.56
2019-01-26T08:44:07.920Z,98147.19
2019-01-26T08:46:37.504Z,98143.20
2019-01-26T08:49:09.742Z,98153.38
2019-01-26T08:51:40.351Z,98142.77
2019-01-26T08:54:09.909Z,98132.25
2019-01-26T08:56:39.954Z,98137.31
2019-01-26T08:59:09.525Z,98149.51
2019-01-26T09:01:39.206Z,98157.11
2019-01-26T09:04:10.378Z,98160.04
2019-01-26T09:06:40.016Z,98157.08
2019-01-26T09:09:10.509Z,98166.04
2019-01-26T09:11:40.122Z,98172.24
2019-01-26T09:14:09.721Z,98174.54
2019-01-26T09:16:39.314Z,98178.55
2019-01-26T09:19:09.325Z,98177.17
2019-01-26T09:21:38.963Z,98170.05
2019-01-26T09:24:08.600Z,98173.70
2019-01-26T09:26:38.187Z,98160.16
2019-01-26T09:29:07.854Z,98163.18
2019-01-26T09:31:37.433Z,98167.66
2019-01-26T09:34:07.341Z,98164.78
2019-01-26T09:36:36.915Z,98161.42
2019-01-26T09:39:09.192Z,98153.14
2019-01-26T09:41:39.031Z,98158.49
2019-01-26T09:44:09.130Z,98151.53
2019-01-26T09:46:38.696Z,98160.28
2019-01-26T09:49:08.305Z,98156.30
2019-01-26T09:51:37.868Z,98157.14
2019-01-26T09:54:08.236Z,98152.69
2019-01-26T09:56:37.861Z,98151.75
2019-01-26T09:59:08.909Z,98150.86
2019-01-26T10:01:38.531Z,98146.96
2019-01-26T10:04:27.471Z,98152.41
2019-01-26T10:06:57.122Z,98139.52
2019-01-26T10:09:26.680Z,98134.89
2019-01-26T10:11:56.263Z,98138.73
2019-01-26T10:14:25.895Z,98139.73
2019-01-26T10:16:55.494Z,98141.75
2019-01-26T10:19:25.084Z,98143.28
2019-01-26T10:21:54.672Z,98132.55
2019-01-26T10:24:24.248Z,98135.03
2019-01-26T10:26:53.855Z,98135.98
2019-01-26T10:29:23.444Z,98128.80
2019-01-26T10:31:52.996Z,98140.27
2019-01-26T10:34:22.600Z,98138.02
2019-01-26T10:37:13.125Z,98133.87
2019-01-26T10:39:42.720Z,98126.45
2019-01-26T10:42:13.943Z,98126.80
2019-01-26T10:44:44.170Z,98127.81
2019-01-26T10:47:13.923Z,98137.20
2019-01-26T10:49:43.483Z,98133.01
2019-01-26T10:52:13.125Z,98133.48
2019-01-26T10:54:42.698Z,98136.95
2019-01-26T10:57:12.466Z,98121.38
2019-01-26T10:59:42.087Z,98112.88
2019-01-26T11:02:12.964Z,98103.02
2019-01-26T11:04:42.528Z,98106.17
2019-01-26T11:07:12.176Z,98102.33
2019-01-26T11:09:42.056Z,98099.30
2019-01-26T11:12:11.710Z,98102.77
2019-01-26T11:14:41.275Z,98099.23
2019-01-26T11:17:10.900Z,98099.58
2019-01-26T11:19:40.443Z,98085.45
2019-01-26T11:22:10.089Z,98085.45
2019-01-26T11:24:39.688Z,98077.98
2019-01-26T11:27:09.416Z,98073.30
2019-01-26T11:29:38.994Z,98078.29
2019-01-26T11:32:09.033Z,98070.22
2019-01-26T11:34:38.646Z,98067.13
2019-01-26T11:37:08.348Z,98067.15
2019-01-26T11:39:39.802Z,98063.22
2019-01-26T11:42:09.364Z,98066.05
2019-01-26T11:44:40.542Z,98055.03
2019-01-26T11:47:10.583Z,98051.05
2019-01-26T11:49:41.751Z,98036.61
2019-01-26T11:52:11.315Z,98022.68
2019-01-26T11:54:42.576Z,98029.28
2019-01-26T11:57:13.715Z,98024.03
2019-01-26T11:59:44.885Z,98020.98
2019-01-26T12:02:35.538Z,98007.50
2019-01-26T12:05:07.997Z,98014.14
2019-01-26T12:07:39.240Z,98012.39
2019-01-26T12:10:10.414Z,98015.89
2019-01-26T12:12:39.972Z,98014.20
2019-01-26T12:15:13.451Z,98012.72
2019-01-26T12:18:02.623Z,97998.53
2019-01-26T12:20:32.200Z,98002.61
2019-01-26T12:23:01.775Z,98000.00
2019-01-26T12:25:31.445Z,97991.54
2019-01-26T12:28:02.512Z,97990.23
2019-01-26T12:30:32.169Z,97992.89
2019-01-26T12:33:01.777Z,97978.91
2019-01-26T12:35:31.423Z,97983.83
2019-01-26T12:38:01.143Z,97975.75
2019-01-26T12:40:30.724Z,97966.22
2019-01-26T12:43:00.345Z,97961.55
2019-01-26T12:45:31.417Z,97960.72
2019-01-26T12:48:01.001Z,97961.68
2019-01-26T12:50:30.589Z,97967.22
2019-01-26T12:53:00.356Z,97966.90
2019-01-26T12:55:31.515Z,97960.25
2019-01-26T12:58:02.936Z,97961.18
2019-01-26T13:00:34.161Z,97955.53
2019-01-26T13:03:04.824Z,97954.53
2019-01-26T13:05:34.418Z,97953.73
2019-01-26T13:08:04.309Z,97943.41
2019-01-26T13:13:16.103Z,97946.01
2019-01-26T13:15:45.812Z,97943.23
2019-01-26T13:18:15.495Z,97943.42
2019-01-26T13:20:46.607Z,97940.31
2019-01-26T13:23:16.192Z,97929.07
2019-01-26T13:25:45.632Z,97923.34
2019-01-26T13:28:15.465Z,97933.63
2019-01-26T13:30:45.020Z,97913.18
2019-01-26T13:33:14.784Z,97917.89
2019-01-26T13:35:44.387Z,97909.84
2019-01-26T13:38:14.015Z,97911.67
2019-01-26T13:40:43.768Z,97902.65
2019-01-26T13:43:13.673Z,97907.62
2019-01-26T13:45:43.317Z,97899.34
2019-01-26T13:48:12.905Z,97906.84
2019-01-26T13:50:42.523Z,97900.20
2019-01-26T13:53:12.250Z,97896.91
2019-01-26T13:55:41.824Z,97896.91
2019-01-26T13:58:11.595Z,97882.39
2019-01-26T14:00:42.635Z,97876.57
2019-01-26T14:03:12.220Z,97872.92
2019-01-26T14:05:41.889Z,97864.86
2019-01-26T14:08:11.470Z,97875.52
2019-01-26T14:10:41.230Z,97875.88
2019-01-26T14:13:10.897Z,97858.68
2019-01-26T14:15:40.488Z,97867.41
2019-01-26T14:18:11.528Z,97860.41
2019-01-26T14:20:44.227Z,97860.13
2019-01-26T14:23:13.816Z,97861.42
2019-01-26T14:25:43.361Z,97854.28
2019-01-26T14:28:12.953Z,97856.85
2019-01-26T14:30:47.668Z,97845.33
2019-01-26T14:33:17.384Z,97849.30
2019-01-26T14:35:47.331Z,97835.09
2019-01-26T14:38:17.142Z,97850.13
2019-01-26T14:40:46.697Z,97851.72
2019-01-26T14:43:16.311Z,97842.83
2019-01-26T14:45:45.889Z,97841.31
2019-01-26T14:48:15.445Z,97828.57
2019-01-26T14:50:45.021Z,97832.44
2019-01-26T14:53:14.698Z,97831.37
2019-01-26T14:55:44.265Z,97822.34
2019-01-26T14:58:14.019Z,97824.84
2019-01-26T15:00:43.723Z,97811.16
2019-01-26T15:03:13.284Z,97811.13
2019-01-26T15:05:43.019Z,97804.01
2019-01-26T15:08:14.160Z,97794.34
2019-01-26T15:10:43.808Z,97797.89
2019-01-26T15:13:13.409Z,97799.96
2019-01-26T15:15:45.795Z,97797.52
2019-01-26T15:18:15.345Z,97791.82
2019-01-26T15:20:45.303Z,97797.69
2019-01-26T15:23:15.005Z,97790.45
2019-01-26T15:25:44.575Z,97782.56
2019-01-26T15:28:14.151Z,97785.97
2019-01-26T15:31:03.007Z,97778.40
2019-01-26T15:33:32.905Z,97776.17
2019-01-26T15:36:08.682Z,97783.34
2019-01-26T15:38:33.793Z,97771.53
2019-01-26T15:41:03.592Z,97767.59
2019-01-26T15:43:33.178Z,97764.74
2019-01-26T15:46:02.737Z,97756.91
2019-01-26T15:48:32.410Z,97756.64
2019-01-26T15:51:21.251Z,97758.66
2019-01-26T15:53:50.832Z,97751.05
2019-01-26T15:56:20.389Z,97743.89
2019-01-26T15:58:49.969Z,97738.45
2019-01-26T16:01:19.708Z,97742.79
2019-01-26T16:03:49.285Z,97737.42
2019-01-26T16:06:18.872Z,97731.77
2019-01-26T16:08:48.497Z,97726.91
2019-01-26T16:11:18.114Z,97725.69
2019-01-26T16:13:47.671Z,97717.77
2019-01-26T16:16:17.860Z,97714.75
2019-01-26T16:18:47.571Z,97710.67
2019-01-26T16:21:18.611Z,97708.97
2019-01-26T16:23:48.219Z,97701.49
2019-01-26T16:26:17.776Z,97705.30
2019-01-26T16:28:47.437Z,97703.61
2019-01-26T16:31:17.009Z,97707.22
2019-01-26T16:33:46.572Z,97709.49
2019-01-26T16:36:16.152Z,97704.98
2019-01-26T16:38:45.732Z,97694.24
2019-01-26T16:41:15.175Z,97696.02
2019-01-26T16:43:44.732Z,97691.07
2019-01-26T16:46:14.429Z,97694.50
2019-01-26T16:48:45.579Z,97680.80
2019-01-26T16:51:15.132Z,97678.13
2019-01-26T16:53:44.704Z,97679.74
2019-01-26T16:56:15.849Z,97662.67
2019-01-26T16:58:45.439Z,97662.23
2019-01-26T17:01:15.043Z,97670.39
2019-01-26T17:03:44.906Z,97665.03
2019-01-26T17:06:14.783Z,97659.98
2019-01-26T17:08:44.463Z,97648.75
2019-01-26T17:11:14.039Z,97644.63
2019-01-26T17:13:43.680Z,97643.56
2019-01-26T17:16:13.845Z,97642.11
2019-01-26T17:18:46.275Z,97643.30
2019-01-26T17:21:14.929Z,97648.23
2019-01-26T17:23:44.533Z,97636.41
2019-01-26T17:26:14.098Z,97632.48
2019-01-26T17:28:43.756Z,97629.22
2019-01-26T17:31:13.354Z,97620.83
2019-01-26T17:33:42.939Z,97619.81
2019-01-26T17:36:12.597Z,97610.66
2019-01-26T17:38:42.189Z,97604.88
2019-01-26T17:41:11.779Z,97613.63
2019-01-26T17:43:47.347Z,97597.78
2019-01-26T17:46:18.454Z,97608.37
2019-01-26T17:48:48.003Z,97600.56
2019-01-26T17:51:17.807Z,97592.23
2019-01-26T17:53:47.472Z,97598.36
2019-01-26T17:56:17.060Z,97600.59
2019-01-26T17:58:46.611Z,97599.25
2019-01-26T18:01:16.300Z,97603.53
2019-01-26T18:03:45.884Z,97599.81
2019-01-26T18:06:15.473Z,97587.80
2019-01-26T18:08:45.733Z,97586.98
2019-01-26T18:11:16.772Z,97581.30
2019-01-26T18:13:46.328Z,97583.28
2019-01-26T18:16:16.019Z,97582.61
2019-01-26T18:18:45.729Z,97581.58
2019-01-26T18:21:15.357Z,97574.02
2019-01-26T18:23:44.995Z,97570.00
2019-01-26T18:26:15.934Z,97563.73
2019-01-26T18:28:45.513Z,97553.28
2019-01-26T18:31:15.188Z,97552.22
2019-01-26T18:33:44.750Z,97546.80
2019-01-26T18:36:15.806Z,97548.87
2019-01-26T18:38:45.656Z,97537.89
2019-01-26T18:41:15.260Z,97539.25
2019-01-26T18:43:44.818Z,97533.63
2019-01-26T18:46:14.744Z,97535.78
2019-01-26T18:48:44.304Z,97523.70
2019-01-26T18:51:14.056Z,97511.02
2019-01-26T18:53:43.984Z,97510.34
2019-01-26T18:56:13.639Z,97500.50
2019-01-26T18:58:43.199Z,97503.42
2019-01-26T19:01:12.804Z,97491.73
2019-01-26T19:03:46.846Z,97495.81
2019-01-26T19:06:20.422Z,97492.92
2019-01-26T19:08:50.015Z,97490.41
2019-01-26T19:11:19.631Z,97480.52
2019-01-26T19:13:50.700Z,97475.80
2019-01-26T19:16:20.453Z,97473.34
2019-01-26T19:18:49.999Z,97473.76
2019-01-26T19:21:19.626Z,97466.14
2019-01-26T19:23:49.338Z,97466.20
2019-01-26T19:26:24.943Z,97453.95
2019-01-26T19:28:54.592Z,97454.72
2019-01-26T19:31:24.241Z,97440.50
2019-01-26T19:33:53.849Z,97443.66
2019-01-26T19:36:23.497Z,97443.75
2019-01-26T19:38:53.051Z,97438.08
2019-01-26T19:41:22.627Z,97423.88
2019-01-26T19:43:52.190Z,97430.49
2019-01-26T19:46:21.772Z,97420.91
2019-01-26T19:48:51.454Z,97413.78
2019-01-26T19:51:20.999Z,97410.75
2019-01-26T19:53:50.736Z,97398.02
2019-01-26T19:56:20.381Z,97401.22
2019-01-26T19:58:50.028Z,97384.20
2019-01-26T20:01:19.604Z,97378.45
2019-01-26T20:03:49.685Z,97373.85
2019-01-26T20:06:19.314Z,97382.64
2019-01-26T20:08:48.996Z,97366.92
2019-01-26T20:11:18.708Z,97359.49
2019-01-26T20:13:48.305Z,97362.66
2019-01-26T20:16:17.892Z,97360.70
2019-01-26T20:18:47.466Z,97358.78
2019-01-26T20:21:17.685Z,97347.72
2019-01-26T20:23:47.473Z,97342.64
2019-01-26T20:26:17.079Z,97330.58
2019-01-26T20:28:46.672Z,97327.58
2019-01-26T20:31:16.207Z,97319.62
2019-01-26T20:33:45.785Z,97299.34
2019-01-26T20:36:15.357Z,97299.45
2019-01-26T20:38:44.903Z,97299.45
2019-01-26T20:41:14.520Z,97302.50
2019-01-26T20:43:44.103Z,97296.48
2019-01-26T20:46:13.724Z,97294.69
2019-01-26T20:48:43.388Z,97293.20
2019-01-26T20:51:12.943Z,97281.91
2019-01-26T20:53:42.540Z,97277.94
2019-01-26T20:56:12.363Z,97281.59
2019-01-26T20:58:41.958Z,97266.69
2019-01-26T21:01:11.566Z,97255.27
2019-01-26T21:03:41.138Z,97256.92
2019-01-26T21:06:10.720Z,97255.87
2019-01-26T21:08:40.285Z,97244.25
2019-01-26T21:11:10.030Z,97243.34
2019-01-26T21:13:45.538Z,97240.63
2019-01-26T21:16:15.087Z,97226.56
2019-01-26T21:18:44.710Z,97218.66
2019-01-26T21:21:14.298Z,97218.36
2019-01-26T21:23:45.007Z,97217.05
2019-01-26T21:26:14.819Z,97195.32
2019-01-26T21:28:44.468Z,97201.13
2019-01-26T21:31:14.067Z,97204.98
2019-01-26T21:33:43.630Z,97190.24
2019-01-26T21:36:13.187Z,97177.77
2019-01-26T21:38:42.840Z,97180.21
2019-01-26T21:41:14.101Z,97174.88
2019-01-26T21:43:43.750Z,97168.31
2019-01-26T21:46:13.697Z,97168.91
2019-01-26T21:48:43.293Z,97180.19
2019-01-26T21:51:12.843Z,97174.19
2019-01-26T21:53:42.434Z,97172.41
2019-01-26T21:56:12.105Z,97162.55
2019-01-26T21:58:41.686Z,97160.41
2019-01-26T22:01:11.377Z,97148.55
2019-01-26T22:03:40.992Z,97141.45
2019-01-26T22:06:10.570Z,97139.56
2019-01-26T22:08:40.455Z,97135.91
2019-01-26T22:11:10.073Z,97135.80
2019-01-26T22:13:39.619Z,97134.67
2019-01-26T22:16:09.173Z,97135.72
2019-01-26T22:18:38.768Z,97127.87
2019-01-26T22:21:08.334Z,97122.03
2019-01-26T22:23:38.661Z,97117.56
2019-01-26T22:26:08.322Z,97116.72
2019-01-26T22:28:39.552Z,97113.55
2019-01-26T22:31:09.108Z,97109.67
2019-01-26T22:33:38.703Z,97113.44
2019-01-26T22:36:08.290Z,97101.52
2019-01-26T22:38:37.835Z,97099.28
2019-01-26T22:41:07.437Z,97093.81
2019-01-26T22:43:37.017Z,97089.49
2019-01-26T22:46:07.375Z,97083.34
2019-01-26T22:48:36.988Z,97081.54
2019-01-26T22:51:06.547Z,97090.56
2019-01-26T22:53:36.099Z,97081.83
2019-01-26T22:56:06.211Z,97069.20
2019-01-26T22:58:35.775Z,97066.48
2019-01-26T23:01:10.213Z,97065.20
2019-01-26T23:03:44.308Z,97055.55
2019-01-26T23:06:18.681Z,97049.64
2019-01-26T23:08:49.495Z,97038.27
2019-01-26T23:11:23.853Z,97035.55
2019-01-26T23:13:57.863Z,97015.42
2019-01-26T23:16:31.952Z,97020.31
2019-01-26T23:19:05.963Z,97001.14
2019-01-26T23:21:39.996Z,97002.53
2019-01-26T23:26:51.025Z,96999.89
2019-01-26T23:29:25.040Z,96984.02
2019-01-26T23:31:54.621Z,96980.95
2019-01-26T23:34:24.224Z,96970.42
2019-01-26T23:36:53.800Z,96969.95
2019-01-26T23:39:23.389Z,96957.80
2019-01-26T23:41:53.011Z,96955.89
2019-01-26T23:44:22.570Z,96951.34
2019-01-26T23:46:52.123Z,96950.77
2019-01-26T23:49:21.732Z,96941.28
2019-01-26T23:51:51.290Z,96926.64
2019-01-26T23:54:20.876Z,96918.16
2019-01-26T23:56:50.513Z,96914.63
2019-01-26T23:59:20.059Z,96903.49
